sensor_id;sensor_type;location;lat;lon;timestamp;P1;durP1;ratioP1;P2;durP2;ratioP2
59054;SDS011;44845;51.444;7.460;2024-02-04T00:01:38;6.15;;;5.40;;
59054;SDS011;44845;51.444;7.460;2024-02-04T00:04:04;5.97;;;5.32;;
59054;SDS011;44845;51.444;7.460;2024-02-04T00:06:29;5.72;;;4.88;;
59054;SDS011;44845;51.444;7.460;2024-02-04T00:08:55;5.88;;;5.30;;
59054;SDS011;44845;51.444;7.460;2024-02-04T00:11:20;7.35;;;5.05;;
59054;SDS011;44845;51.444;7.460;2024-02-04T00:13:46;6.88;;;4.90;;
59054;SDS011;44845;51.444;7.460;2024-02-04T00:16:11;5.30;;;4.80;;
59054;SDS011;44845;51.444;7.460;2024-02-04T00:18:36;5.68;;;4.30;;
59054;SDS011;44845;51.444;7.460;2024-02-04T00:21:02;4.57;;;4.05;;
59054;SDS011;44845;51.444;7.460;2024-02-04T00:23:27;4.93;;;4.28;;
59054;SDS011;44845;51.444;7.460;2024-02-04T00:25:52;6.25;;;3.97;;
59054;SDS011;44845;51.444;7.460;2024-02-04T00:28:18;4.72;;;4.05;;
59054;SDS011;44845;51.444;7.460;2024-02-04T00:30:45;5.75;;;4.10;;
59054;SDS011;44845;51.444;7.460;2024-02-04T00:33:10;5.95;;;4.20;;
59054;SDS011;44845;51.444;7.460;2024-02-04T00:35:36;4.18;;;3.78;;
59054;SDS011;44845;51.444;7.460;2024-02-04T00:38:01;3.42;;;3.13;;
59054;SDS011;44845;51.444;7.460;2024-02-04T00:40:28;4.35;;;3.63;;
59054;SDS011;44845;51.444;7.460;2024-02-04T00:42:53;4.22;;;3.38;;
59054;SDS011;44845;51.444;7.460;2024-02-04T00:45:19;4.53;;;3.65;;
59054;SDS011;44845;51.444;7.460;2024-02-04T00:47:44;5.53;;;3.60;;
59054;SDS011;44845;51.444;7.460;2024-02-04T00:50:09;3.92;;;3.53;;
59054;SDS011;44845;51.444;7.460;2024-02-04T00:52:35;4.60;;;3.47;;
59054;SDS011;44845;51.444;7.460;2024-02-04T00:55:00;3.08;;;2.78;;
59054;SDS011;44845;51.444;7.460;2024-02-04T00:57:25;4.10;;;3.20;;
59054;SDS011;44845;51.444;7.460;2024-02-04T00:59:51;4.18;;;3.35;;
59054;SDS011;44845;51.444;7.460;2024-02-04T01:02:16;3.63;;;3.10;;
59054;SDS011;44845;51.444;7.460;2024-02-04T01:04:41;3.50;;;3.20;;
59054;SDS011;44845;51.444;7.460;2024-02-04T01:07:07;4.82;;;3.42;;
59054;SDS011;44845;51.444;7.460;2024-02-04T01:09:32;3.47;;;2.83;;
59054;SDS011;44845;51.444;7.460;2024-02-04T01:11:57;2.97;;;2.65;;
59054;SDS011;44845;51.444;7.460;2024-02-04T01:14:23;2.67;;;2.47;;
59054;SDS011;44845;51.444;7.460;2024-02-04T01:16:48;2.40;;;2.20;;
59054;SDS011;44845;51.444;7.460;2024-02-04T01:19:14;3.05;;;2.45;;
59054;SDS011;44845;51.444;7.460;2024-02-04T01:21:39;2.50;;;2.30;;
59054;SDS011;44845;51.444;7.460;2024-02-04T01:24:04;2.28;;;1.75;;
59054;SDS011;44845;51.444;7.460;2024-02-04T01:26:30;2.15;;;1.58;;
59054;SDS011;44845;51.444;7.460;2024-02-04T01:28:55;1.38;;;1.23;;
59054;SDS011;44845;51.444;7.460;2024-02-04T01:31:20;1.88;;;1.15;;
59054;SDS011;44845;51.444;7.460;2024-02-04T01:33:46;2.55;;;1.27;;
59054;SDS011;44845;51.444;7.460;2024-02-04T01:36:11;1.58;;;1.00;;
59054;SDS011;44845;51.444;7.460;2024-02-04T01:38:37;1.08;;;1.08;;
59054;SDS011;44845;51.444;7.460;2024-02-04T01:41:02;1.27;;;1.17;;
59054;SDS011;44845;51.444;7.460;2024-02-04T01:43:28;1.27;;;1.17;;
59054;SDS011;44845;51.444;7.460;2024-02-04T01:45:54;1.52;;;1.15;;
59054;SDS011;44845;51.444;7.460;2024-02-04T01:48:20;1.77;;;1.13;;
59054;SDS011;44845;51.444;7.460;2024-02-04T01:50:46;1.35;;;0.80;;
59054;SDS011;44845;51.444;7.460;2024-02-04T01:53:14;1.00;;;1.00;;
59054;SDS011;44845;51.444;7.460;2024-02-04T01:55:40;0.80;;;0.80;;
59054;SDS011;44845;51.444;7.460;2024-02-04T01:58:06;0.93;;;0.60;;
59054;SDS011;44845;51.444;7.460;2024-02-04T02:00:31;0.80;;;0.80;;
59054;SDS011;44845;51.444;7.460;2024-02-04T02:02:57;0.50;;;0.50;;
59054;SDS011;44845;51.444;7.460;2024-02-04T02:05:25;1.35;;;0.70;;
59054;SDS011;44845;51.444;7.460;2024-02-04T02:07:51;0.50;;;0.50;;
59054;SDS011;44845;51.444;7.460;2024-02-04T02:10:17;0.80;;;0.30;;
59054;SDS011;44845;51.444;7.460;2024-02-04T02:12:48;2.50;;;0.50;;
59054;SDS011;44845;51.444;7.460;2024-02-04T02:15:21;0.40;;;0.40;;
59054;SDS011;44845;51.444;7.460;2024-02-04T02:22:57;0.40;;;0.40;;
59054;SDS011;44845;51.444;7.460;2024-02-04T02:25:32;0.20;;;0.20;;
59054;SDS011;44845;51.444;7.460;2024-02-04T02:28:01;0.55;;;0.32;;
59054;SDS011;44845;51.444;7.460;2024-02-04T02:30:26;0.40;;;0.40;;
59054;SDS011;44845;51.444;7.460;2024-02-04T02:32:51;0.80;;;0.80;;
59054;SDS011;44845;51.444;7.460;2024-02-04T02:35:17;1.05;;;0.77;;
59054;SDS011;44845;51.444;7.460;2024-02-04T02:43:10;3.50;;;1.20;;
59054;SDS011;44845;51.444;7.460;2024-02-04T02:45:37;2.80;;;1.77;;
59054;SDS011;44845;51.444;7.460;2024-02-04T02:48:06;2.33;;;2.05;;
59054;SDS011;44845;51.444;7.460;2024-02-04T02:50:33;2.25;;;2.15;;
59054;SDS011;44845;51.444;7.460;2024-02-04T02:52:59;3.05;;;2.85;;
59054;SDS011;44845;51.444;7.460;2024-02-04T02:55:24;3.00;;;2.80;;
59054;SDS011;44845;51.444;7.460;2024-02-04T02:57:49;4.00;;;3.58;;
59054;SDS011;44845;51.444;7.460;2024-02-04T03:00:15;3.50;;;3.20;;
59054;SDS011;44845;51.444;7.460;2024-02-04T03:02:40;3.78;;;3.47;;
59054;SDS011;44845;51.444;7.460;2024-02-04T03:05:06;3.97;;;3.67;;
59054;SDS011;44845;51.444;7.460;2024-02-04T03:07:31;5.00;;;4.53;;
59054;SDS011;44845;51.444;7.460;2024-02-04T03:09:56;4.28;;;3.88;;
59054;SDS011;44845;51.444;7.460;2024-02-04T03:12:22;5.95;;;4.40;;
59054;SDS011;44845;51.444;7.460;2024-02-04T03:14:47;5.03;;;4.50;;
59054;SDS011;44845;51.444;7.460;2024-02-04T03:17:12;6.40;;;4.72;;
59054;SDS011;44845;51.444;7.460;2024-02-04T03:19:38;5.20;;;4.72;;
59054;SDS011;44845;51.444;7.460;2024-02-04T03:22:04;5.60;;;5.03;;
59054;SDS011;44845;51.444;7.460;2024-02-04T03:24:29;8.60;;;6.47;;
59054;SDS011;44845;51.444;7.460;2024-02-04T03:26:55;7.45;;;6.68;;
59054;SDS011;44845;51.444;7.460;2024-02-04T03:29:20;6.95;;;6.25;;
59054;SDS011;44845;51.444;7.460;2024-02-04T03:31:45;10.35;;;7.25;;
59054;SDS011;44845;51.444;7.460;2024-02-04T03:34:11;7.95;;;7.10;;
59054;SDS011;44845;51.444;7.460;2024-02-04T03:36:36;12.57;;;7.97;;
59054;SDS011;44845;51.444;7.460;2024-02-04T03:39:03;9.07;;;7.80;;
59054;SDS011;44845;51.444;7.460;2024-02-04T03:41:28;10.43;;;8.70;;
59054;SDS011;44845;51.444;7.460;2024-02-04T03:43:53;9.25;;;8.05;;
59054;SDS011;44845;51.444;7.460;2024-02-04T03:46:20;13.93;;;9.90;;
59054;SDS011;44845;51.444;7.460;2024-02-04T03:48:45;12.20;;;10.13;;
59054;SDS011;44845;51.444;7.460;2024-02-04T03:51:14;13.75;;;9.57;;
59054;SDS011;44845;51.444;7.460;2024-02-04T03:53:42;13.57;;;9.40;;
59054;SDS011;44845;51.444;7.460;2024-02-04T03:56:07;12.77;;;10.20;;
59054;SDS011;44845;51.444;7.460;2024-02-04T03:58:32;12.57;;;10.00;;
59054;SDS011;44845;51.444;7.460;2024-02-04T04:00:58;11.73;;;9.85;;
59054;SDS011;44845;51.444;7.460;2024-02-04T04:03:24;15.10;;;10.05;;
59054;SDS011;44845;51.444;7.460;2024-02-04T04:05:49;13.95;;;11.15;;
59054;SDS011;44845;51.444;7.460;2024-02-04T04:08:15;13.70;;;10.80;;
59054;SDS011;44845;51.444;7.460;2024-02-04T04:10:41;15.90;;;11.07;;
59054;SDS011;44845;51.444;7.460;2024-02-04T04:13:06;13.68;;;10.07;;
59054;SDS011;44845;51.444;7.460;2024-02-04T04:15:32;12.27;;;10.35;;
59054;SDS011;44845;51.444;7.460;2024-02-04T04:17:57;12.25;;;10.73;;
59054;SDS011;44845;51.444;7.460;2024-02-04T04:20:23;13.45;;;10.77;;
59054;SDS011;44845;51.444;7.460;2024-02-04T04:22:48;14.02;;;11.15;;
59054;SDS011;44845;51.444;7.460;2024-02-04T04:25:13;15.10;;;11.77;;
59054;SDS011;44845;51.444;7.460;2024-02-04T04:27:39;15.13;;;11.80;;
59054;SDS011;44845;51.444;7.460;2024-02-04T04:30:04;13.95;;;10.90;;
59054;SDS011;44845;51.444;7.460;2024-02-04T04:32:30;12.65;;;11.35;;
59054;SDS011;44845;51.444;7.460;2024-02-04T04:34:56;12.30;;;11.00;;
59054;SDS011;44845;51.444;7.460;2024-02-04T04:37:21;15.88;;;10.70;;
59054;SDS011;44845;51.444;7.460;2024-02-04T04:39:47;13.13;;;11.15;;
59054;SDS011;44845;51.444;7.460;2024-02-04T04:42:12;13.10;;;11.07;;
59054;SDS011;44845;51.444;7.460;2024-02-04T04:44:38;11.55;;;10.35;;
59054;SDS011;44845;51.444;7.460;2024-02-04T04:47:03;11.88;;;10.65;;
59054;SDS011;44845;51.444;7.460;2024-02-04T04:49:29;12.68;;;10.45;;
59054;SDS011;44845;51.444;7.460;2024-02-04T04:51:54;11.35;;;10.15;;
59054;SDS011;44845;51.444;7.460;2024-02-04T04:54:20;10.73;;;9.23;;
59054;SDS011;44845;51.444;7.460;2024-02-04T04:56:45;11.68;;;9.05;;
59054;SDS011;44845;51.444;7.460;2024-02-04T04:59:11;8.88;;;7.97;;
59054;SDS011;44845;51.444;7.460;2024-02-04T05:01:36;9.68;;;7.85;;
59054;SDS011;44845;51.444;7.460;2024-02-04T05:04:01;8.77;;;7.93;;
59054;SDS011;44845;51.444;7.460;2024-02-04T05:06:27;9.75;;;8.35;;
59054;SDS011;44845;51.444;7.460;2024-02-04T05:08:52;9.20;;;7.57;;
59054;SDS011;44845;51.444;7.460;2024-02-04T05:11:17;9.52;;;8.40;;
59054;SDS011;44845;51.444;7.460;2024-02-04T05:13:43;11.02;;;9.70;;
59054;SDS011;44845;51.444;7.460;2024-02-04T05:16:08;10.43;;;8.80;;
59054;SDS011;44845;51.444;7.460;2024-02-04T05:18:33;11.52;;;10.18;;
59054;SDS011;44845;51.444;7.460;2024-02-04T05:21:00;10.98;;;9.50;;
59054;SDS011;44845;51.444;7.460;2024-02-04T05:23:27;12.48;;;10.00;;
59054;SDS011;44845;51.444;7.460;2024-02-04T05:25:52;12.63;;;10.80;;
59054;SDS011;44845;51.444;7.460;2024-02-04T05:28:17;13.02;;;11.13;;
59054;SDS011;44845;51.444;7.460;2024-02-04T05:30:43;12.13;;;10.82;;
59054;SDS011;44845;51.444;7.460;2024-02-04T05:33:08;12.13;;;10.93;;
59054;SDS011;44845;51.444;7.460;2024-02-04T05:35:33;12.23;;;10.93;;
59054;SDS011;44845;51.444;7.460;2024-02-04T05:38:01;13.38;;;11.98;;
59054;SDS011;44845;51.444;7.460;2024-02-04T05:40:26;17.38;;;11.40;;
59054;SDS011;44845;51.444;7.460;2024-02-04T05:42:51;16.38;;;11.82;;
59054;SDS011;44845;51.444;7.460;2024-02-04T05:45:17;15.20;;;10.80;;
59054;SDS011;44845;51.444;7.460;2024-02-04T05:47:42;13.82;;;11.75;;
59054;SDS011;44845;51.444;7.460;2024-02-04T05:50:08;12.15;;;10.73;;
59054;SDS011;44845;51.444;7.460;2024-02-04T05:52:33;13.98;;;11.20;;
59054;SDS011;44845;51.444;7.460;2024-02-04T05:54:58;16.38;;;11.48;;
59054;SDS011;44845;51.444;7.460;2024-02-04T05:57:24;11.70;;;9.95;;
59054;SDS011;44845;51.444;7.460;2024-02-04T05:59:50;12.65;;;10.13;;
59054;SDS011;44845;51.444;7.460;2024-02-04T06:02:17;13.88;;;10.05;;
59054;SDS011;44845;51.444;7.460;2024-02-04T06:04:43;13.10;;;10.43;;
59054;SDS011;44845;51.444;7.460;2024-02-04T06:07:08;12.02;;;9.70;;
59054;SDS011;44845;51.444;7.460;2024-02-04T06:09:34;11.80;;;9.93;;
59054;SDS011;44845;51.444;7.460;2024-02-04T06:12:00;12.50;;;10.38;;
59054;SDS011;44845;51.444;7.460;2024-02-04T06:14:25;11.57;;;9.80;;
59054;SDS011;44845;51.444;7.460;2024-02-04T06:16:51;13.80;;;10.68;;
59054;SDS011;44845;51.444;7.460;2024-02-04T06:19:16;14.30;;;11.02;;
59054;SDS011;44845;51.444;7.460;2024-02-04T06:21:41;13.80;;;11.60;;
59054;SDS011;44845;51.444;7.460;2024-02-04T06:24:07;15.73;;;12.57;;
59054;SDS011;44845;51.444;7.460;2024-02-04T06:26:32;17.33;;;12.10;;
59054;SDS011;44845;51.444;7.460;2024-02-04T06:28:58;17.27;;;13.15;;
59054;SDS011;44845;51.444;7.460;2024-02-04T06:31:23;16.33;;;13.93;;
59054;SDS011;44845;51.444;7.460;2024-02-04T06:33:48;17.02;;;13.65;;
59054;SDS011;44845;51.444;7.460;2024-02-04T06:36:14;17.52;;;14.27;;
59054;SDS011;44845;51.444;7.460;2024-02-04T06:38:39;19.38;;;13.68;;
59054;SDS011;44845;51.444;7.460;2024-02-04T06:41:04;19.08;;;14.85;;
59054;SDS011;44845;51.444;7.460;2024-02-04T06:43:30;15.43;;;13.32;;
59054;SDS011;44845;51.444;7.460;2024-02-04T06:45:55;17.23;;;13.50;;
59054;SDS011;44845;51.444;7.460;2024-02-04T06:48:20;17.33;;;13.77;;
59054;SDS011;44845;51.444;7.460;2024-02-04T06:50:46;17.20;;;13.25;;
59054;SDS011;44845;51.444;7.460;2024-02-04T06:53:12;18.42;;;13.02;;
59054;SDS011;44845;51.444;7.460;2024-02-04T06:55:41;13.70;;;12.23;;
59054;SDS011;44845;51.444;7.460;2024-02-04T06:58:06;15.90;;;11.55;;
59054;SDS011;44845;51.444;7.460;2024-02-04T07:00:31;16.38;;;10.98;;
59054;SDS011;44845;51.444;7.460;2024-02-04T07:02:57;15.70;;;10.85;;
59054;SDS011;44845;51.444;7.460;2024-02-04T07:05:22;12.50;;;9.77;;
59054;SDS011;44845;51.444;7.460;2024-02-04T07:07:48;12.10;;;9.43;;
59054;SDS011;44845;51.444;7.460;2024-02-04T07:10:14;13.73;;;9.00;;
59054;SDS011;44845;51.444;7.460;2024-02-04T07:12:40;12.27;;;9.05;;
59054;SDS011;44845;51.444;7.460;2024-02-04T07:15:06;12.68;;;9.05;;
59054;SDS011;44845;51.444;7.460;2024-02-04T07:17:31;11.98;;;9.27;;
59054;SDS011;44845;51.444;7.460;2024-02-04T07:19:56;11.40;;;8.10;;
59054;SDS011;44845;51.444;7.460;2024-02-04T07:22:22;11.23;;;8.55;;
59054;SDS011;44845;51.444;7.460;2024-02-04T07:24:47;11.23;;;7.90;;
59054;SDS011;44845;51.444;7.460;2024-02-04T07:27:12;9.45;;;7.72;;
59054;SDS011;44845;51.444;7.460;2024-02-04T07:29:38;9.15;;;6.90;;
59054;SDS011;44845;51.444;7.460;2024-02-04T07:32:03;10.15;;;7.28;;
59054;SDS011;44845;51.444;7.460;2024-02-04T07:34:29;8.98;;;7.68;;
59054;SDS011;44845;51.444;7.460;2024-02-04T07:36:54;8.77;;;7.72;;
59054;SDS011;44845;51.444;7.460;2024-02-04T07:39:19;12.07;;;8.50;;
59054;SDS011;44845;51.444;7.460;2024-02-04T07:41:45;12.23;;;7.78;;
59054;SDS011;44845;51.444;7.460;2024-02-04T07:44:10;11.07;;;8.48;;
59054;SDS011;44845;51.444;7.460;2024-02-04T07:46:35;11.60;;;8.55;;
59054;SDS011;44845;51.444;7.460;2024-02-04T07:49:01;14.13;;;8.93;;
59054;SDS011;44845;51.444;7.460;2024-02-04T07:51:26;11.98;;;7.82;;
59054;SDS011;44845;51.444;7.460;2024-02-04T07:53:52;14.35;;;8.10;;
59054;SDS011;44845;51.444;7.460;2024-02-04T07:56:17;11.00;;;8.00;;
59054;SDS011;44845;51.444;7.460;2024-02-04T07:58:42;10.15;;;7.25;;
59054;SDS011;44845;51.444;7.460;2024-02-04T08:01:08;10.90;;;7.05;;
59054;SDS011;44845;51.444;7.460;2024-02-04T08:03:33;8.98;;;7.28;;
59054;SDS011;44845;51.444;7.460;2024-02-04T08:05:58;7.15;;;6.38;;
59054;SDS011;44845;51.444;7.460;2024-02-04T08:08:24;7.65;;;5.70;;
59054;SDS011;44845;51.444;7.460;2024-02-04T08:10:49;7.20;;;5.53;;
59054;SDS011;44845;51.444;7.460;2024-02-04T08:13:14;7.63;;;5.63;;
59054;SDS011;44845;51.444;7.460;2024-02-04T08:15:40;7.75;;;5.10;;
59054;SDS011;44845;51.444;7.460;2024-02-04T08:18:05;7.10;;;4.80;;
59054;SDS011;44845;51.444;7.460;2024-02-04T08:20:30;6.18;;;4.78;;
59054;SDS011;44845;51.444;7.460;2024-02-04T08:22:56;5.45;;;4.47;;
59054;SDS011;44845;51.444;7.460;2024-02-04T08:25:21;7.90;;;4.60;;
59054;SDS011;44845;51.444;7.460;2024-02-04T08:27:46;5.32;;;4.78;;
59054;SDS011;44845;51.444;7.460;2024-02-04T08:30:12;6.75;;;4.97;;
59054;SDS011;44845;51.444;7.460;2024-02-04T08:32:38;6.70;;;4.05;;
59054;SDS011;44845;51.444;7.460;2024-02-04T08:35:04;6.90;;;4.15;;
59054;SDS011;44845;51.444;7.460;2024-02-04T08:37:31;4.20;;;3.80;;
59054;SDS011;44845;51.444;7.460;2024-02-04T08:39:57;3.47;;;3.17;;
59054;SDS011;44845;51.444;7.460;2024-02-04T08:42:22;4.00;;;3.60;;
59054;SDS011;44845;51.444;7.460;2024-02-04T08:44:47;5.22;;;3.67;;
59054;SDS011;44845;51.444;7.460;2024-02-04T08:47:13;3.42;;;3.13;;
59054;SDS011;44845;51.444;7.460;2024-02-04T08:49:41;4.03;;;3.05;;
59054;SDS011;44845;51.444;7.460;2024-02-04T08:52:06;3.60;;;3.03;;
59054;SDS011;44845;51.444;7.460;2024-02-04T08:54:31;4.28;;;3.10;;
59054;SDS011;44845;51.444;7.460;2024-02-04T08:56:57;3.17;;;2.45;;
59054;SDS011;44845;51.444;7.460;2024-02-04T08:59:22;6.72;;;2.92;;
59054;SDS011;44845;51.444;7.460;2024-02-04T09:01:49;3.40;;;2.60;;
59054;SDS011;44845;51.444;7.460;2024-02-04T09:04:14;4.03;;;2.17;;
59054;SDS011;44845;51.444;7.460;2024-02-04T09:06:41;5.63;;;2.10;;
59054;SDS011;44845;51.444;7.460;2024-02-04T09:09:07;2.65;;;2.00;;
59054;SDS011;44845;51.444;7.460;2024-02-04T09:11:34;3.78;;;1.75;;
59054;SDS011;44845;51.444;7.460;2024-02-04T09:13:59;3.45;;;1.33;;
59054;SDS011;44845;51.444;7.460;2024-02-04T09:16:24;2.15;;;1.20;;
59054;SDS011;44845;51.444;7.460;2024-02-04T09:18:50;1.10;;;1.00;;
59054;SDS011;44845;51.444;7.460;2024-02-04T09:21:15;2.33;;;1.00;;
59054;SDS011;44845;51.444;7.460;2024-02-04T09:23:40;1.25;;;1.10;;
59054;SDS011;44845;51.444;7.460;2024-02-04T09:26:06;2.25;;;1.40;;
59054;SDS011;44845;51.444;7.460;2024-02-04T09:28:31;3.20;;;1.23;;
59054;SDS011;44845;51.444;7.460;2024-02-04T09:30:57;2.08;;;1.80;;
59054;SDS011;44845;51.444;7.460;2024-02-04T09:33:22;1.98;;;1.55;;
59054;SDS011;44845;51.444;7.460;2024-02-04T09:35:47;2.47;;;2.08;;
59054;SDS011;44845;51.444;7.460;2024-02-04T09:38:14;2.38;;;1.50;;
59054;SDS011;44845;51.444;7.460;2024-02-04T09:40:40;2.15;;;1.98;;
59054;SDS011;44845;51.444;7.460;2024-02-04T09:43:06;4.35;;;1.70;;
59054;SDS011;44845;51.444;7.460;2024-02-04T09:45:31;4.63;;;2.00;;
59054;SDS011;44845;51.444;7.460;2024-02-04T09:47:57;4.25;;;1.98;;
59054;SDS011;44845;51.444;7.460;2024-02-04T09:50:24;2.28;;;1.80;;
59054;SDS011;44845;51.444;7.460;2024-02-04T09:52:50;2.95;;;1.67;;
59054;SDS011;44845;51.444;7.460;2024-02-04T09:55:19;3.70;;;2.67;;
59054;SDS011;44845;51.444;7.460;2024-02-04T09:57:48;4.32;;;3.70;;
59054;SDS011;44845;51.444;7.460;2024-02-04T10:00:14;4.10;;;3.70;;
59054;SDS011;44845;51.444;7.460;2024-02-04T10:02:43;5.45;;;4.65;;
59054;SDS011;44845;51.444;7.460;2024-02-04T10:05:09;6.43;;;4.75;;
59054;SDS011;44845;51.444;7.460;2024-02-04T10:07:35;5.80;;;5.10;;
59054;SDS011;44845;51.444;7.460;2024-02-04T10:10:01;8.18;;;5.88;;
59054;SDS011;44845;51.444;7.460;2024-02-04T10:12:26;7.30;;;5.60;;
59054;SDS011;44845;51.444;7.460;2024-02-04T10:14:52;6.43;;;5.25;;
59054;SDS011;44845;51.444;7.460;2024-02-04T10:17:17;7.03;;;5.57;;
59054;SDS011;44845;51.444;7.460;2024-02-04T10:19:46;6.38;;;5.50;;
59054;SDS011;44845;51.444;7.460;2024-02-04T10:22:12;6.75;;;5.63;;
59054;SDS011;44845;51.444;7.460;2024-02-04T10:24:37;6.40;;;5.75;;
59054;SDS011;44845;51.444;7.460;2024-02-04T10:27:03;6.10;;;5.05;;
59054;SDS011;44845;51.444;7.460;2024-02-04T10:29:29;5.55;;;4.35;;
59054;SDS011;44845;51.444;7.460;2024-02-04T10:31:54;4.60;;;4.20;;
59054;SDS011;44845;51.444;7.460;2024-02-04T10:34:21;5.53;;;4.43;;
59054;SDS011;44845;51.444;7.460;2024-02-04T10:36:47;5.07;;;4.55;;
59054;SDS011;44845;51.444;7.460;2024-02-04T10:39:12;10.25;;;4.80;;
59054;SDS011;44845;51.444;7.460;2024-02-04T10:41:39;6.03;;;4.70;;
59054;SDS011;44845;51.444;7.460;2024-02-04T10:44:12;8.75;;;4.30;;
59054;SDS011;44845;51.444;7.460;2024-02-04T10:46:41;4.80;;;3.85;;
59054;SDS011;44845;51.444;7.460;2024-02-04T10:49:09;4.07;;;3.65;;
59054;SDS011;44845;51.444;7.460;2024-02-04T10:51:39;4.80;;;3.95;;
59054;SDS011;44845;51.444;7.460;2024-02-04T10:54:06;3.90;;;3.55;;
59054;SDS011;44845;51.444;7.460;2024-02-04T10:59:02;4.45;;;3.78;;
59054;SDS011;44845;51.444;7.460;2024-02-04T11:01:28;4.82;;;4.07;;
59054;SDS011;44845;51.444;7.460;2024-02-04T11:03:54;5.20;;;4.55;;
59054;SDS011;44845;51.444;7.460;2024-02-04T11:06:21;4.95;;;4.45;;
59054;SDS011;44845;51.444;7.460;2024-02-04T11:08:48;5.15;;;4.20;;
59054;SDS011;44845;51.444;7.460;2024-02-04T11:11:14;4.70;;;4.30;;
59054;SDS011;44845;51.444;7.460;2024-02-04T11:13:41;4.40;;;4.00;;
59054;SDS011;44845;51.444;7.460;2024-02-04T11:16:12;3.67;;;3.28;;
59054;SDS011;44845;51.444;7.460;2024-02-04T11:19:01;4.15;;;3.53;;
59054;SDS011;44845;51.444;7.460;2024-02-04T11:27:07;5.35;;;3.70;;
59054;SDS011;44845;51.444;7.460;2024-02-04T11:29:33;5.90;;;3.50;;
59054;SDS011;44845;51.444;7.460;2024-02-04T11:32:01;4.95;;;3.70;;
59054;SDS011;44845;51.444;7.460;2024-02-04T11:34:26;3.85;;;3.45;;
59054;SDS011;44845;51.444;7.460;2024-02-04T11:36:52;4.97;;;3.85;;
59054;SDS011;44845;51.444;7.460;2024-02-04T11:39:18;5.40;;;3.65;;
59054;SDS011;44845;51.444;7.460;2024-02-04T11:41:47;6.35;;;3.22;;
59054;SDS011;44845;51.444;7.460;2024-02-04T11:44:26;3.75;;;2.70;;
59054;SDS011;44845;51.444;7.460;2024-02-04T11:46:51;2.88;;;2.60;;
59054;SDS011;44845;51.444;7.460;2024-02-04T11:49:17;3.17;;;2.92;;
59054;SDS011;44845;51.444;7.460;2024-02-04T11:51:47;6.93;;;3.53;;
59054;SDS011;44845;51.444;7.460;2024-02-04T11:54:15;4.20;;;3.17;;
59054;SDS011;44845;51.444;7.460;2024-02-04T11:56:41;4.47;;;3.03;;
59054;SDS011;44845;51.444;7.460;2024-02-04T11:59:08;4.53;;;3.42;;
59054;SDS011;44845;51.444;7.460;2024-02-04T12:01:34;4.07;;;3.03;;
59054;SDS011;44845;51.444;7.460;2024-02-04T12:04:13;3.83;;;2.80;;
59054;SDS011;44845;51.444;7.460;2024-02-04T12:06:40;2.70;;;2.35;;
59054;SDS011;44845;51.444;7.460;2024-02-04T12:09:06;2.20;;;2.00;;
59054;SDS011;44845;51.444;7.460;2024-02-04T12:11:34;2.88;;;2.10;;
59054;SDS011;44845;51.444;7.460;2024-02-04T12:14:00;2.70;;;1.90;;
59054;SDS011;44845;51.444;7.460;2024-02-04T12:16:26;3.00;;;1.63;;
59054;SDS011;44845;51.444;7.460;2024-02-04T12:18:52;1.30;;;1.20;;
59054;SDS011;44845;51.444;7.460;2024-02-04T12:21:18;1.40;;;1.30;;
59054;SDS011;44845;51.444;7.460;2024-02-04T12:23:43;2.63;;;1.50;;
59054;SDS011;44845;51.444;7.460;2024-02-04T12:26:09;1.27;;;1.17;;
59054;SDS011;44845;51.444;7.460;2024-02-04T12:28:34;1.13;;;1.13;;
59054;SDS011;44845;51.444;7.460;2024-02-04T12:30:59;1.45;;;1.10;;
59054;SDS011;44845;51.444;7.460;2024-02-04T12:33:25;1.15;;;1.00;;
59054;SDS011;44845;51.444;7.460;2024-02-04T12:35:51;0.98;;;0.90;;
59054;SDS011;44845;51.444;7.460;2024-02-04T12:38:17;1.85;;;1.02;;
59054;SDS011;44845;51.444;7.460;2024-02-04T12:40:42;1.10;;;1.00;;
59054;SDS011;44845;51.444;7.460;2024-02-04T12:43:10;2.80;;;1.60;;
59054;SDS011;44845;51.444;7.460;2024-02-04T12:45:36;1.70;;;1.60;;
59054;SDS011;44845;51.444;7.460;2024-02-04T12:48:02;2.55;;;2.35;;
59054;SDS011;44845;51.444;7.460;2024-02-04T12:50:27;3.13;;;2.83;;
59054;SDS011;44845;51.444;7.460;2024-02-04T12:55:28;4.28;;;2.97;;
59054;SDS011;44845;51.444;7.460;2024-02-04T12:58:09;3.28;;;2.97;;
59054;SDS011;44845;51.444;7.460;2024-02-04T13:00:39;3.17;;;2.88;;
59054;SDS011;44845;51.444;7.460;2024-02-04T13:03:06;3.53;;;3.10;;
59054;SDS011;44845;51.444;7.460;2024-02-04T13:05:33;4.72;;;3.00;;
59054;SDS011;44845;51.444;7.460;2024-02-04T13:07:59;4.30;;;3.30;;
59054;SDS011;44845;51.444;7.460;2024-02-04T13:10:30;3.95;;;3.30;;
59054;SDS011;44845;51.444;7.460;2024-02-04T13:13:09;9.00;;;4.07;;
59054;SDS011;44845;51.444;7.460;2024-02-04T13:15:42;4.38;;;3.83;;
59054;SDS011;44845;51.444;7.460;2024-02-04T13:18:11;4.72;;;3.70;;
59054;SDS011;44845;51.444;7.460;2024-02-04T13:20:40;4.75;;;3.30;;
59054;SDS011;44845;51.444;7.460;2024-02-04T13:23:06;4.85;;;3.40;;
59054;SDS011;44845;51.444;7.460;2024-02-04T13:25:32;3.60;;;3.10;;
59054;SDS011;44845;51.444;7.460;2024-02-04T13:27:58;3.28;;;3.05;;
59054;SDS011;44845;51.444;7.460;2024-02-04T13:30:23;3.38;;;2.70;;
59054;SDS011;44845;51.444;7.460;2024-02-04T13:32:49;4.20;;;2.60;;
59054;SDS011;44845;51.444;7.460;2024-02-04T13:35:15;2.80;;;2.60;;
59054;SDS011;44845;51.444;7.460;2024-02-04T13:37:44;2.58;;;2.38;;
59054;SDS011;44845;51.444;7.460;2024-02-04T13:40:17;2.40;;;2.20;;
59054;SDS011;44845;51.444;7.460;2024-02-04T13:42:44;3.17;;;2.63;;
59054;SDS011;44845;51.444;7.460;2024-02-04T13:45:10;3.38;;;2.40;;
59054;SDS011;44845;51.444;7.460;2024-02-04T13:47:36;2.70;;;2.15;;
59054;SDS011;44845;51.444;7.460;2024-02-04T13:50:02;3.17;;;2.33;;
59054;SDS011;44845;51.444;7.460;2024-02-04T13:52:28;2.63;;;2.42;;
59054;SDS011;44845;51.444;7.460;2024-02-04T13:54:53;3.60;;;3.30;;
59054;SDS011;44845;51.444;7.460;2024-02-04T13:57:19;3.42;;;3.17;;
59054;SDS011;44845;51.444;7.460;2024-02-04T13:59:44;3.60;;;3.30;;
59054;SDS011;44845;51.444;7.460;2024-02-04T14:02:09;3.83;;;3.53;;
59054;SDS011;44845;51.444;7.460;2024-02-04T14:04:35;3.28;;;2.97;;
59054;SDS011;44845;51.444;7.460;2024-02-04T14:07:00;3.15;;;2.85;;
59054;SDS011;44845;51.444;7.460;2024-02-04T14:09:26;3.22;;;2.95;;
59054;SDS011;44845;51.444;7.460;2024-02-04T14:11:55;5.03;;;3.28;;
59054;SDS011;44845;51.444;7.460;2024-02-04T14:14:20;3.58;;;3.25;;
59054;SDS011;44845;51.444;7.460;2024-02-04T14:16:47;4.18;;;3.72;;
59054;SDS011;44845;51.444;7.460;2024-02-04T14:19:13;4.07;;;3.78;;
59054;SDS011;44845;51.444;7.460;2024-02-04T14:21:38;4.10;;;3.80;;
59054;SDS011;44845;51.444;7.460;2024-02-04T14:24:04;4.32;;;3.90;;
59054;SDS011;44845;51.444;7.460;2024-02-04T14:26:30;4.65;;;4.10;;
59054;SDS011;44845;51.444;7.460;2024-02-04T14:28:56;4.55;;;4.10;;
59054;SDS011;44845;51.444;7.460;2024-02-04T14:31:22;4.18;;;3.78;;
59054;SDS011;44845;51.444;7.460;2024-02-04T14:33:47;4.45;;;4.05;;
59054;SDS011;44845;51.444;7.460;2024-02-04T14:36:12;4.45;;;3.67;;
59054;SDS011;44845;51.444;7.460;2024-02-04T14:38:38;3.60;;;3.38;;
59054;SDS011;44845;51.444;7.460;2024-02-04T14:41:04;3.67;;;3.47;;
59054;SDS011;44845;51.444;7.460;2024-02-04T14:43:29;3.80;;;3.50;;
59054;SDS011;44845;51.444;7.460;2024-02-04T14:45:55;3.50;;;3.20;;
59054;SDS011;44845;51.444;7.460;2024-02-04T14:48:20;3.20;;;3.00;;
59054;SDS011;44845;51.444;7.460;2024-02-04T14:50:46;3.95;;;3.28;;
59054;SDS011;44845;51.444;7.460;2024-02-04T14:53:12;3.50;;;3.22;;
59054;SDS011;44845;51.444;7.460;2024-02-04T14:55:37;4.15;;;3.85;;